Latest Coastal Weather Observations for Lucinda

IDQ60701

Issued at 10:55 pm EST Tuesday 29 July 2014 (issued every 10 minutes, with the page automatically refreshed every 10 minutes)

About coastal observations | Map of coastal stations | Coastal observations for QLD | Marine services | Other Formats
Station Details ID: 032141 Name: LUCINDA POINT Lat: -18.52 Lon: 146.39 Height: 10.0 m
Data from the previous 72 hours. | See also: Recent months for locations in Queensland
Date/Time
EST
Temp

°C
Wind Pressure Rain
since 9am
mm
Weather Cloud Vis
km
Sea
Height
m
Swell
Dir
 
Speed
knots
Gust
knots
hPa Trend Height
m
Period
s
Dir
29/10:30pm 22.3 SE 6 10 1020.5 - 0.0 - - - - - - -
29/10:00pm 22.4 SE 6 9 1020.6 - 0.0 - - - - - - -
29/09:30pm 22.3 SE 5 8 1020.5 - 0.0 - - - - - - -
29/09:00pm 22.0 SE 6 11 1020.4 - 0.0 - - - - - - -
29/08:30pm 21.8 S 7 8 1020.3 - 0.0 - - - - - - -
29/08:00pm 21.9 SSE 5 7 1020.1 - 0.0 - - - - - - -
29/07:30pm 22.0 SSE 5 7 1019.9 - 0.0 - - - - - - -
29/07:00pm 22.0 SE 5 7 1019.6 - 0.0 - - - - - - -
29/06:30pm 22.1 SE 7 9 1019.5 - 0.0 - - - - - - -
29/06:00pm 21.9 SE 6 9 1019.2 - 0.0 - - - - - - -
29/05:30pm 22.3 ESE 8 11 1019.0 - 0.0 - - - - - - -
29/05:00pm 22.5 ESE 5 8 1018.7 - 0.0 - - - - - - -
29/04:30pm 22.8 SE 5 7 1018.5 - 0.0 - - - - - - -
29/04:00pm 22.5 SSE 5 7 1018.4 - 0.0 - - - - - - -
29/03:30pm 22.7 SSE 5 6 1018.4 - 0.0 - - - - - - -
29/03:00pm 22.6 S 5 6 1018.6 - 0.0 - - - - - - -
29/02:30pm 22.8 S 4 5 1018.7 - 0.0 - - - - - - -
29/02:00pm 23.0 SSW 4 6 1019.1 - 0.0 - - - - - - -
29/01:30pm 22.3 S 5 6 1019.5 - 0.0 - - - - - - -
29/01:00pm 21.9 SSW 6 7 1019.9 - 0.0 - - - - - - -
29/12:30pm 21.8 S 5 8 1020.2 - 0.0 - - - - - - -
29/12:00pm 21.6 S 8 10 1020.8 - 0.0 - - - - - - -
29/11:30am 21.3 S 8 11 1021.1 - 0.0 - - - - - - -
29/11:00am 21.6 S 8 12 1021.4 - 0.0 - - - - - - -
29/10:30am 21.5 S 7 9 1021.6 - 0.0 - - - - - - -
29/10:00am 21.8 S 7 9 1021.6 - 0.0 - - - - - - -
29/09:30am 21.5 S 7 9 1021.6 - 0.0 - - - - - - -
29/09:00am 22.3 S 5 8 1021.4 - 0.0 - - - - - - -
29/08:30am 22.5 S 6 9 1021.2 - 0.0 - - - - - - -
29/08:00am 22.4 SSE 6 9 1020.9 - 0.0 - - - - - - -
29/07:30am 22.0 SSE 7 11 1020.7 - 0.0 - - - - - - -
29/07:00am 21.5 SSE 6 9 1020.3 - 0.0 - - - - - - -
29/06:30am 21.3 SSE 5 7 1020.1 - 0.0 - - - - - - -
29/06:00am 21.4 SSE 5 8 1019.9 - 0.0 - - - - - - -
29/05:30am 21.4 SSE 5 7 1020.0 - 0.0 - - - - - - -
29/05:00am 21.5 SSE 5 7 1019.7 - 0.0 - - - - - - -
29/04:30am 20.3 SW 4 6 1019.5 - 0.0 - - - - - - -
29/04:00am 19.3 WSW 6 7 1019.5 - 0.0 - - - - - - -
29/03:30am 19.3 WSW 8 9 1019.6 - 0.0 - - - - - - -
29/03:00am 19.7 SW 6 7 1019.7 - 0.0 - - - - - - -
29/02:30am 19.7 WSW 6 7 1019.6 - 0.0 - - - - - - -
29/02:00am 19.9 SW 8 9 1019.8 - 0.0 - - - - - - -
29/01:30am 19.6 SW 8 9 1019.9 - 0.0 - - - - - - -
29/01:00am 19.3 WSW 8 9 1020.1 - 0.0 - - - - - - -
29/12:30am 19.5 WSW 8 9 1020.3 - 0.0 - - - - - - -
29/12:00am 19.7 WSW 9 9 1020.3 - 0.0 - - - - - - -
 
Date/Time
EST
Temp

°C
Wind Pressure Rain
since 9am
mm
Weather Cloud Vis
km
Sea
Height
m
Swell
Dir
 
Speed
knots
Gust
knots
hPa Trend Height
m
Period
s
Dir
28/11:30pm 22.0 S 5 6 1020.4 - 0.0 - - - - - - -
28/11:00pm 21.8 S 4 5 1020.4 - 0.0 - - - - - - -
28/10:30pm 21.8 S 6 7 1020.4 - 0.0 - - - - - - -
28/10:00pm 21.9 S 5 6 1020.4 - 0.0 - - - - - - -
28/09:30pm 22.4 SE 4 7 1020.4 - 0.0 - - - - - - -
28/09:00pm 22.5 ESE 9 12 1020.4 - 0.0 - - - - - - -
28/08:30pm 22.6 ESE 8 12 1020.4 - 0.0 - - - - - - -
28/08:00pm 22.5 ESE 11 14 1020.3 - 0.0 - - - - - - -
28/07:30pm 22.4 ESE 9 13 1019.9 - 0.0 - - - - - - -
28/07:00pm 22.5 ESE 6 9 1019.7 - 0.0 - - - - - - -
28/06:30pm 22.6 E 10 13 1019.4 - 0.0 - - - - - - -
28/06:00pm 22.6 ESE 9 13 1019.2 - 0.0 - - - - - - -
28/05:30pm 22.5 ESE 8 13 1018.9 - 0.0 - - - - - - -
28/05:00pm 22.6 ESE 9 13 1018.7 - 0.0 - - - - - - -
28/04:30pm 22.6 SE 10 13 1018.6 - 0.0 - - - - - - -
28/04:00pm 22.2 SE 9 13 1018.5 - 0.0 - - - - - - -
28/03:30pm 22.4 SE 9 13 1018.6 - 0.0 - - - - - - -
28/03:00pm 22.1 SE 9 12 1018.8 - 0.0 - - - - - - -
28/02:30pm 22.4 SE 9 12 1019.1 - 0.0 - - - - - - -
28/02:00pm 22.4 SE 9 13 1019.4 - 0.0 - - - - - - -
28/01:30pm 22.0 S 10 12 1019.8 - 0.0 - - - - - - -
28/01:00pm 21.8 S 11 14 1020.1 - 0.0 - - - - - - -
28/12:30pm 21.5 S 11 13 1020.4 - 0.0 - - - - - - -
28/12:00pm 21.4 S 10 11 1020.7 - 0.0 - - - - - - -
28/11:30am 21.2 S 11 13 1021.0 - 0.0 - - - - - - -
28/11:00am 21.2 S 12 14 1021.4 - 0.0 - - - - - - -
28/10:30am 21.3 S 12 14 1021.7 - 0.0 - - - - - - -
28/10:00am 21.4 S 12 14 1021.9 - 0.0 - - - - - - -
28/09:30am 21.4 S 13 14 1021.9 - 0.0 - - - - - - -
28/09:00am 21.3 S 14 16 1021.8 - 0.0 - - - - - - -
28/08:30am 21.1 S 14 17 1021.4 - 0.0 - - - - - - -
28/08:00am 21.3 S 14 16 1021.0 - 0.0 - - - - - - -
28/07:30am 21.0 S 14 16 1020.6 - 0.0 - - - - - - -
28/07:00am 21.1 S 14 16 1020.3 - 0.0 - - - - - - -
28/06:30am 20.9 S 15 17 1020.1 - 0.0 - - - - - - -
28/06:00am 21.0 S 13 15 1019.8 - 0.0 - - - - - - -
28/05:30am 21.5 S 11 13 1019.6 - 0.0 - - - - - - -
28/05:00am 21.6 S 9 12 1019.6 - 0.0 - - - - - - -
28/04:30am 21.5 S 9 11 1019.4 - 0.0 - - - - - - -
28/04:00am 21.6 S 9 11 1019.5 - 0.0 - - - - - - -
28/03:30am 21.6 S 9 11 1019.4 - 0.0 - - - - - - -
28/03:00am 21.6 S 7 8 1019.6 - 0.0 - - - - - - -
28/02:30am 21.7 S 6 8 1019.7 - 0.0 - - - - - - -
28/02:00am 21.9 S 5 7 1020.0 - 0.0 - - - - - - -
28/01:30am 22.0 SSE 7 13 1020.2 - 0.0 - - - - - - -
28/01:00am 22.2 SE 8 13 1020.4 - 0.0 - - - - - - -
28/12:30am 22.2 SE 7 12 1020.8 - 0.0 - - - - - - -
28/12:00am 22.0 SE 7 11 1021.2 - 0.0 - - - - - - -
 
Date/Time
EST
Temp

°C
Wind Pressure Rain
since 9am
mm
Weather Cloud Vis
km
Sea
Height
m
Swell
Dir
 
Speed
knots
Gust
knots
hPa Trend Height
m
Period
s
Dir
27/11:30pm 21.3 SSW 6 7 1021.5 - 0.0 - - - - - - -
27/11:00pm 21.3 SW 6 7 1021.4 - 0.0 - - - - - - -
27/10:30pm 21.5 SW 6 6 1021.5 - 0.0 - - - - - - -
27/10:00pm 21.6 SSW 6 8 1021.6 - 0.0 - - - - - - -
27/09:30pm 22.3 S 8 9 1021.6 - 0.0 - - - - - - -
27/09:00pm 22.3 SSE 5 8 1021.4 - 0.0 - - - - - - -
27/08:30pm 22.3 SE 7 11 1021.4 - 0.0 - - - - - - -
27/08:00pm 22.1 SE 5 9 1021.1 - 0.0 - - - - - - -
27/07:30pm 22.0 ESE 5 9 1020.7 - 0.0 - - - - - - -
27/07:00pm 22.0 SE 6 11 1020.3 - 0.0 - - - - - - -
27/06:30pm 22.0 SE 6 9 1019.9 - 0.0 - - - - - - -
27/06:00pm 21.9 ESE 8 13 1019.6 - 0.0 - - - - - - -
27/05:30pm 22.2 SE 9 13 1019.3 - 0.0 - - - - - - -
27/05:00pm 22.4 SE 9 12 1019.1 - 0.0 - - - - - - -
27/04:30pm 22.9 SE 9 13 1019.1 - 0.0 - - - - - - -
27/04:00pm 22.8 S 7 11 1019.1 - 0.0 - - - - - - -
27/03:30pm 22.4 S 11 15 1019.2 - 0.0 - - - - - - -
27/03:00pm 22.3 S 12 14 1019.3 - 0.0 - - - - - - -
27/02:30pm 22.2 S 14 16 1019.3 - 0.0 - - - - - - -
27/02:00pm 22.0 S 14 17 1019.6 - 0.0 - - - - - - -
27/01:30pm 22.0 S 13 18 1019.9 - 0.0 - - - - - - -
27/01:00pm 22.2 S 14 17 1020.3 - 0.0 - - - - - - -
27/12:30pm 21.8 S 13 18 1020.9 - 0.0 - - - - - - -
27/12:00pm 21.7 S 14 19 1021.1 - 0.0 - - - - - - -
27/11:30am 21.6 S 15 19 1021.5 - 0.0 - - - - - - -
27/11:00am 21.6 S 17 19 1021.7 - 0.0 - - - - - - -
27/10:30am 21.4 S 15 18 1021.8 - 0.0 - - - - - - -
27/10:00am 21.2 S 16 18 1022.2 - 0.0 - - - - - - -
27/09:30am 21.3 S 16 19 1022.1 - 0.0 - - - - - - -
27/09:00am 21.3 S 15 17 1022.1 - 0.2 - - - - - - -
27/08:30am 21.2 S 17 21 1021.7 - 0.2 - - - - - - -
27/08:00am 20.6 S 12 17 1021.4 - 0.2 - - - - - - -
27/07:30am 21.5 S 9 12 1021.0 - 0.0 - - - - - - -
27/07:00am 21.6 S 7 11 1020.8 - 0.0 - - - - - - -
27/06:30am 21.4 S 9 12 1020.4 - 0.0 - - - - - - -
27/06:00am 21.4 S 11 15 1020.2 - 0.0 - - - - - - -
27/05:30am 21.3 S 14 18 1020.1 - 0.0 - - - - - - -
27/05:00am 21.2 S 13 17 1019.9 - 0.0 - - - - - - -
27/04:30am 21.5 S 9 12 1019.8 - 0.0 - - - - - - -
27/04:00am 21.4 S 9 14 1019.9 - 0.0 - - - - - - -
27/03:30am 21.2 S 15 20 1020.0 - 0.0 - - - - - - -
27/03:00am 21.4 S 14 16 1020.2 - 0.0 - - - - - - -
27/02:30am 21.4 S 13 15 1020.4 - 0.0 - - - - - - -
27/02:00am 21.4 S 13 16 1020.7 - 0.0 - - - - - - -
27/01:30am 21.4 S 12 14 1021.1 - 0.0 - - - - - - -
27/01:00am 21.4 S 13 15 1021.6 - 0.0 - - - - - - -
27/12:30am 21.7 S 8 9 1021.8 - 0.0 - - - - - - -
27/12:00am 21.9 S 5 8 1022.0 - 0.0 - - - - - - -
 
Date/Time
EST
Temp

°C
Wind Pressure Rain
since 9am
mm
Weather Cloud Vis
km
Sea
Height
m
Swell
Dir
 
Speed
knots
Gust
knots
hPa Trend Height
m
Period
s
Dir
26/11:30pm 21.8 S 5 7 1022.1 - 0.0 - - - - - - -
26/11:00pm 21.9 S 9 11 1022.5 - 0.0 - - - - - - -

Other Formats:

Comma delimited format used in spreadsheet applications
http://www.bom.gov.au/fwo/IDQ60701/IDQ60701.94295.axf

JavaScript Object Notation format (JSON) in row-major order
http://www.bom.gov.au/fwo/IDQ60701/IDQ60701.94295.json